Latest Weather Observations for Cocos Island

IDW60801

Issued at 10:43 am WST Monday 8 March 2021 (issued every 10 minutes, with the page automatically refreshed every 10 minutes)

About weather observations | Map of weather stations | Latest weather observations for WA | Other Formats
Station Details ID: 200284 Name: COCOS ISLAND AIRPORT Lat: -12.19 Lon: 96.83 Height: 3.0 m
Data from the previous 72 hours. | See also: Recent months at Cocos Island
Date/Time
WST
Temp
°C
App
Temp
°C
Dew
Point
°C
Rel
Hum
%
Delta-T
°C
Wind Press
QNH
hPa
Press
MSL
hPa
Rain since
9am
mm
Dir  Spd
km/h
Gust
km/h
Spd
kts
Gust
kts
08/10:30am 27.5 29.4 22.0 72 3.7 WSW 15 20 8 11 1012.2 1012.2 0.0
08/10:00am 27.1 28.4 21.6 72 3.7 WSW 17 20 9 11 1012.1 1012.1 0.0
08/09:30am 27.0 28.5 22.0 74 3.4 WSW 17 20 9 11 1011.9 1011.9 0.0
08/09:00am 27.4 28.8 21.9 72 3.7 WSW 17 20 9 11 1011.4 1011.4 0.0
08/08:30am 26.7 28.0 21.7 74 3.3 WSW 17 20 9 11 1011.0 1011.0 0.0
08/08:00am 26.4 27.7 21.6 75 3.2 WSW 17 22 9 12 1010.7 1010.7 0.0
08/07:30am 26.3 27.5 21.5 75 3.2 W 17 22 9 12 1010.5 1010.5 0.0
08/07:00am 26.5 27.8 21.7 75 3.2 W 17 24 9 13 1010.4 1010.4 0.0
08/06:30am 26.4 27.7 21.6 75 3.2 WSW 17 22 9 12 1010.3 1010.3 0.0
08/06:00am 26.5 28.3 21.9 76 3.1 WSW 15 19 8 10 1010.1 1010.1 0.0
08/05:30am 26.6 28.6 22.2 77 3.0 WSW 15 19 8 10 1010.2 1010.2 0.0
08/05:00am 26.7 28.6 22.1 76 3.1 WSW 15 19 8 10 1010.1 1010.1 0.0
08/04:30am 26.6 28.7 22.4 78 2.8 WSW 15 20 8 11 1010.3 1010.3 0.0
08/04:00am 26.6 29.0 22.9 80 2.5 WSW 15 19 8 10 1010.5 1010.5 0.0
08/03:30am 26.7 29.4 22.8 79 2.6 WSW 13 19 7 10 1010.6 1010.6 0.0
08/03:00am 26.6 29.7 22.9 80 2.5 WSW 11 19 6 10 1010.9 1010.9 0.0
08/02:30am 26.5 30.2 23.2 82 2.2 WSW 9 13 5 7 1011.1 1011.1 0.0
08/02:00am 26.4 30.1 23.3 83 2.1 W 9 11 5 6 1011.5 1011.5 0.0
08/01:30am 25.5 29.6 23.0 86 1.7 W 6 9 3 5 1011.7 1011.7 0.0
08/01:00am 25.4 30.2 23.5 89 1.3 WSW 4 9 2 5 1012.1 1012.1 0.0
08/12:30am 26.0 31.1 23.3 85 1.8 SW 2 7 1 4 1012.2 1012.2 0.0
08/12:00am 26.3 30.8 23.6 85 1.8 SW 6 9 3 5 1012.2 1012.2 0.0
 
Date/Time
WST
Temp
°C
App
Temp
°C
Dew
Point
°C
Rel
Hum
%
Delta-T
°C
Wind Press
QNH
hPa
Press
MSL
hPa
Rain since
9am
mm
Dir  Spd
km/h
Gust
km/h
Spd
kts
Gust
kts
07/11:30pm 26.3 30.5 23.4 84 2.0 WSW 7 9 4 5 1012.0 1012.0 0.0
07/11:00pm 26.2 30.2 23.1 83 2.1 SW 7 9 4 5 1012.0 1012.0 0.0
07/10:30pm 26.4 30.6 23.5 84 2.0 SSW 7 11 4 6 1011.7 1011.7 0.0
07/10:00pm 26.5 30.4 23.6 84 2.0 SSW 9 11 5 6 1011.4 1011.4 0.0
07/09:30pm 26.5 30.5 23.8 85 1.9 S 9 11 5 6 1011.1 1011.1 0.0
07/09:00pm 26.7 30.3 23.8 84 2.0 SSW 11 13 6 7 1010.7 1010.7 0.0
07/08:30pm 26.6 30.4 23.5 83 2.1 SSW 9 11 5 6 1010.5 1010.5 0.0
07/08:00pm 26.9 30.8 23.6 82 2.3 SSW 9 11 5 6 1010.2 1010.2 0.0
07/07:30pm 27.1 31.0 23.6 81 2.4 SSW 9 11 5 6 1009.8 1009.8 0.0
07/07:00pm 27.3 31.3 23.7 81 2.5 SSW 9 13 5 7 1009.6 1009.6 0.0
07/06:30pm 27.6 31.2 23.8 80 2.6 SW 11 17 6 9 1009.3 1009.3 0.0
07/06:00pm 27.8 30.9 23.6 78 2.9 SW 13 17 7 9 1009.4 1009.4 0.0
07/05:30pm 28.1 31.3 23.7 77 3.0 SW 13 19 7 10 1009.4 1009.4 0.0
07/05:00pm 28.4 31.5 24.2 78 2.9 SW 15 19 8 10 1009.4 1009.4 0.0
07/04:30pm 28.8 31.9 24.1 76 3.3 SW 15 20 8 11 1009.4 1009.4 0.0
07/04:00pm 28.7 31.6 23.8 75 3.4 SW 15 20 8 11 1009.6 1009.6 0.0
07/03:30pm 28.9 32.0 24.2 76 3.3 SW 15 20 8 11 1009.8 1009.8 0.0
07/03:00pm 28.3 30.4 23.7 76 3.2 SSW 19 22 10 12 1010.0 1010.0 0.0
07/02:30pm 28.2 30.4 24.2 79 2.8 SSW 20 26 11 14 1010.5 1010.5 0.0
07/02:00pm 28.2 30.4 24.0 78 2.9 SSW 19 26 10 14 1010.6 1010.6 0.0
07/01:30pm 28.3 30.5 24.3 79 2.8 SSW 20 26 11 14 1010.9 1010.9 0.0
07/01:00pm 28.2 30.2 25.2 84 2.1 SSW 24 33 13 18 1011.1 1011.1 0.0
07/12:30pm 27.2 30.5 26.0 93 0.8 SSW 20 28 11 15 1011.3 1011.3 0.0
07/12:00pm 26.4 29.4 25.5 95 0.6 S 20 26 11 14 1011.8 1011.8 0.0
07/11:38am 26.1 29.1 25.6 97 0.4 S 20 26 11 14 1012.0 1012.0 0.0
07/11:30am 26.1 29.9 25.9 99 0.1 SSE 17 24 9 13 1012.2 1012.2 0.0
07/11:08am 25.8 29.4 25.6 99 0.1 S 17 20 9 11 1012.6 1012.6 0.0
07/11:00am 25.4 28.4 25.2 99 0.1 SSE 19 24 10 13 1012.7 1012.7 5.2
07/10:30am 25.0 27.2 24.8 99 0.1 SSE 22 30 12 16 1012.6 1012.6 5.2
07/10:00am 24.8 27.1 24.1 96 0.5 SSW 19 24 10 13 1012.3 1012.3 5.2
07/09:30am 24.2 26.1 22.8 92 0.9 W 17 24 9 13 1012.0 1012.0 4.8
07/09:04am 23.3 23.7 23.1 99 0.1 WNW 26 33 14 18 1011.6 1011.6 4.8
07/09:00am 23.3 23.7 23.1 99 0.1 WNW 26 37 14 20 1011.6 1011.6 4.8
07/08:33am 24.2 25.1 24.0 99 0.1 WNW 26 46 14 25 1011.3 1011.3 4.2
07/08:30am 24.6 27.5 24.4 99 0.1 WNW 17 39 9 21 1011.4 1011.4 4.0
07/08:00am 25.3 30.7 25.1 99 0.1 SSE 6 7 3 4 1010.9 1010.9 4.0
07/07:30am 25.5 30.1 25.3 99 0.1 SSE 11 15 6 8 1010.5 1010.5 4.0
07/07:00am 25.5 30.1 25.3 99 0.1 SSE 11 15 6 8 1010.2 1010.2 4.0
07/06:30am 25.5 29.7 25.3 99 0.1 S 13 17 7 9 1009.9 1009.9 4.0
07/06:00am 25.6 30.2 25.4 99 0.1 S 11 15 6 8 1009.5 1009.5 4.0
07/05:30am 25.4 29.9 25.2 99 0.1 S 11 15 6 8 1009.5 1009.5 4.0
07/05:21am 25.2 29.2 25.0 99 0.1 S 13 15 7 8 1009.4 1009.4 4.0
07/05:09am 25.3 29.3 25.1 99 0.1 SSW 13 15 7 8 1009.5 1009.5 4.0
07/05:00am 25.1 28.6 24.9 99 0.1 SSW 15 20 8 11 1009.4 1009.4 3.8
07/04:30am 25.3 29.3 25.1 99 0.1 SSE 13 19 7 10 1009.5 1009.5 3.8
07/04:00am 24.9 29.5 24.7 99 0.1 SSE 9 13 5 7 1009.6 1009.6 3.8
07/03:30am 24.7 29.7 24.5 99 0.1 SSE 6 7 3 4 1009.9 1009.9 3.8
07/03:06am 24.6 29.4 24.4 99 0.1 SSE 7 11 4 6 1010.2 1010.2 3.8
07/03:00am 24.6 28.6 24.4 99 0.1 SSE 11 15 6 8 1010.3 1010.3 3.8
07/02:41am 24.8 26.5 24.6 99 0.1 SW 24 32 13 17 1010.6 1010.6 3.2
07/02:30am 25.2 26.3 24.9 98 0.2 SW 28 35 15 19 1010.6 1010.6 3.2
07/02:27am 25.4 26.6 25.1 98 0.2 SW 28 35 15 19 1010.6 1010.6 3.2
07/02:00am 26.9 30.5 24.4 86 1.7 SW 13 15 7 8 1010.5 1010.5 3.2
07/01:30am 26.8 30.9 24.6 88 1.5 SW 11 15 6 8 1010.7 1010.7 3.2
07/01:00am 26.3 30.2 24.3 89 1.4 SSW 11 17 6 9 1011.1 1011.1 3.2
07/12:30am 27.2 31.4 24.7 86 1.7 WSW 11 15 6 8 1011.4 1011.4 3.2
07/12:00am 27.2 31.4 24.8 87 1.7 WSW 11 15 6 8 1011.3 1011.3 3.2
 
Date/Time
WST
Temp
°C
App
Temp
°C
Dew
Point
°C
Rel
Hum
%
Delta-T
°C
Wind Press
QNH
hPa
Press
MSL
hPa
Rain since
9am
mm
Dir  Spd
km/h
Gust
km/h
Spd
kts
Gust
kts
06/11:30pm 27.1 31.1 25.1 89 1.4 WSW 13 17 7 9 1011.0 1011.0 3.2
06/11:00pm 27.1 31.3 25.3 90 1.3 WSW 13 17 7 9 1010.8 1010.8 3.2
06/10:30pm 27.1 30.9 25.3 90 1.3 WSW 15 19 8 10 1010.5 1010.5 3.2
06/10:00pm 27.1 31.0 25.5 91 1.1 W 15 19 8 10 1010.2 1010.2 3.2
06/09:30pm 27.0 30.9 25.4 91 1.1 W 15 19 8 10 1009.8 1009.8 3.2
06/09:00pm 26.9 30.6 25.1 90 1.3 WNW 15 19 8 10 1009.5 1009.5 3.2
06/08:30pm 27.0 30.4 25.2 90 1.3 WNW 17 24 9 13 1009.3 1009.3 3.2
06/08:00pm 27.0 29.8 25.0 89 1.4 WNW 19 22 10 12 1008.9 1008.9 3.2
06/07:30pm 27.3 30.6 25.1 88 1.5 WNW 17 20 9 11 1008.7 1008.7 3.2
06/07:00pm 27.6 30.4 25.0 86 1.8 WNW 19 24 10 13 1008.5 1008.5 3.2
06/06:30pm 27.5 30.4 25.1 87 1.7 WNW 19 22 10 12 1008.4 1008.4 3.2
06/06:00pm 27.7 31.0 25.1 86 1.8 WNW 17 20 9 11 1008.2 1008.2 3.2
06/05:30pm 28.0 31.2 25.0 84 2.1 NW 17 20 9 11 1008.3 1008.3 3.2
06/05:00pm 28.7 32.1 25.3 82 2.4 NW 17 24 9 13 1008.5 1008.5 3.2
06/04:30pm 28.5 31.7 24.9 81 2.5 NW 17 22 9 12 1008.8 1008.8 3.2
06/04:00pm 28.2 31.3 25.4 85 2.0 NW 19 22 10 12 1008.9 1008.9 3.2
06/03:30pm 28.0 31.4 25.2 85 2.0 NW 17 20 9 11 1009.5 1009.5 3.2
06/03:00pm 27.7 30.9 24.9 85 2.0 WNW 17 20 9 11 1009.9 1009.9 3.2
06/02:30pm 27.4 30.6 25.0 87 1.7 NW 17 22 9 12 1010.3 1010.3 3.2
06/02:00pm 26.8 30.4 25.6 93 0.8 NNW 17 20 9 11 1010.8 1010.8 3.0
06/01:30pm 26.0 29.6 25.0 94 0.7 NNW 15 24 8 13 1011.4 1011.4 3.0
06/01:00pm 25.8 29.8 25.1 96 0.5 N 13 22 7 12 1011.7 1011.7 3.0
06/12:38pm 26.1 29.9 25.9 99 0.1 N 17 24 9 13 1012.0 1012.0 3.0
06/12:30pm 26.0 29.7 25.8 99 0.1 N 17 22 9 12 1012.0 1012.0 3.0
06/12:02pm 25.5 29.7 25.3 99 0.1 N 13 19 7 10 1012.1 1012.1 3.0
06/12:00pm 25.5 29.7 25.3 99 0.1 N 13 19 7 10 1012.1 1012.1 3.0
06/11:51am 25.2 28.4 25.0 99 0.1 NNE 17 20 9 11 1012.1 1012.1 3.0
06/11:30am 25.1 27.3 24.9 99 0.1 NNE 22 28 12 15 1012.0 1012.0 2.8
06/11:06am 25.2 28.8 25.0 99 0.1 N 15 20 8 11 1012.3 1012.3 0.2
06/11:00am 25.3 28.2 25.1 99 0.1 NNE 19 20 10 11 1012.2 1012.2 17.4
06/10:30am 24.7 27.0 24.5 99 0.1 NNE 20 24 11 13 1011.9 1011.9 17.0
06/10:18am 24.6 27.8 24.4 99 0.1 NNE 15 20 8 11 1011.9 1011.9 17.0
06/10:00am 24.4 27.1 24.2 99 0.1 NNE 17 19 9 10 1012.0 1012.0 17.0
06/09:51am 24.5 27.3 24.3 99 0.1 NNE 17 20 9 11 1011.9 1011.9 17.0
06/09:41am 24.6 29.0 24.4 99 0.1 NE 9 13 5 7 1011.8 1011.8 16.8
06/09:30am 24.5 28.4 24.3 99 0.1 NE 11 15 6 8 1011.6 1011.6 16.8
06/09:00am 24.3 28.5 24.1 99 0.1 WNW 9 17 5 9 1011.3 1011.3 14.4
06/08:44am 25.1 29.4 24.9 99 0.1 NNW 11 22 6 12 1010.9 1010.9 9.4
06/08:30am 25.7 30.8 25.5 99 0.1 NE 9 13 5 7 1010.3 1010.3 8.4
06/08:00am 25.3 30.1 25.1 99 0.1 NE 9 15 5 8 1009.8 1009.8 8.4
06/07:32am 25.4 29.9 25.2 99 0.1 NE 11 15 6 8 1009.7 1009.7 8.4
06/07:31am 25.4 29.9 25.2 99 0.1 NE 11 15 6 8 1009.7 1009.7 8.4
06/07:30am 25.4 29.9 25.2 99 0.1 NE 11 15 6 8 1009.7 1009.7 8.4
06/07:00am 25.5 30.1 25.3 99 0.1 NNE 11 15 6 8 1009.7 1009.7 4.2
06/06:50am 25.6 30.2 25.4 99 0.1 NNE 11 15 6 8 1009.5 1009.5 2.4
06/06:30am 25.9 31.5 25.7 99 0.1 NE 7 9 4 5 1009.3 1009.3 2.2
06/06:27am 25.8 31.3 25.6 99 0.1 NE 7 9 4 5 1009.3 1009.3 2.2
06/06:00am 26.2 32.2 26.0 99 0.1 NE 6 9 3 5 1009.1 1009.1 2.2
06/05:30am 25.8 32.6 25.5 98 0.2 CALM 0 0 0 0 1008.7 1008.7 2.2
06/05:00am 25.9 32.8 25.7 99 0.1 CALM 0 0 0 0 1008.8 1008.8 2.2
06/04:30am 25.9 32.8 25.7 99 0.1 CALM 0 0 0 0 1008.9 1008.9 2.2
06/04:00am 26.2 32.0 26.0 99 0.1 NE 7 9 4 5 1009.2 1009.2 2.2
06/03:30am 25.8 32.6 25.6 99 0.1 CALM 0 0 0 0 1009.5 1009.5 2.2
06/03:00am 25.1 31.5 24.9 99 0.1 CALM 0 0 0 0 1009.3 1009.3 2.2
06/02:30am 25.4 32.0 25.2 99 0.1 CALM 0 0 0 0 1009.8 1009.8 2.2
06/02:00am 25.2 31.3 25.0 99 0.1 SSW 2 6 1 3 1010.1 1010.1 2.2
06/01:30am 25.6 32.2 25.3 98 0.2 CALM 0 0 0 0 1010.6 1010.6 2.2
06/01:00am 25.6 31.5 25.3 98 0.2 SSW 4 7 2 4 1010.5 1010.5 2.2
06/12:30am 25.8 31.2 25.5 98 0.2 SSW 7 9 4 5 1010.5 1010.5 2.2
06/12:00am 25.7 31.3 25.4 98 0.2 SSW 6 9 3 5 1010.6 1010.6 2.2
 
Date/Time
WST
Temp
°C
App
Temp
°C
Dew
Point
°C
Rel
Hum
%
Delta-T
°C
Wind Press
QNH
hPa
Press
MSL
hPa
Rain since
9am
mm
Dir  Spd
km/h
Gust
km/h
Spd
kts
Gust
kts
05/11:30pm 25.9 31.5 25.4 97 0.3 SSW 6 7 3 4 1010.6 1010.6 2.2
05/11:00pm 26.0 31.6 25.7 98 0.2 SSW 7 11 4 6 1010.7 1010.7 2.2
05/10:30pm 26.1 31.5 25.4 96 0.5 SSW 7 9 4 5 1010.5 1010.5 2.2
05/10:00pm 26.0 31.6 25.8 99 0.1 SSW 7 11 4 6 1010.0 1010.0 2.2
05/09:30pm 25.8 30.9 25.6 99 0.1 SW 9 13 5 7 1009.6 1009.6 2.2
05/09:20pm 25.9 30.7 25.7 99 0.1 SW 11 15 6 8 1009.6 1009.6 2.2
05/09:00pm 26.1 30.7 25.9 99 0.1 W 13 19 7 10 1009.4 1009.4 2.2
05/08:43pm 26.4 31.6 25.7 96 0.5 NW 9 11 5 6 1009.4 1009.4 1.8
05/08:30pm 26.5 32.3 26.0 97 0.4 NW 7 9 4 5 1009.2 1009.2 1.8
05/08:28pm 26.5 32.3 26.0 97 0.4 NW 7 11 4 6 1009.2 1009.2 1.8
05/08:00pm 26.3 33.5 26.1 99 0.1 CALM 0 6 0 3 1009.0 1009.0 1.8
05/07:48pm 26.3 32.3 26.1 99 0.1 NNW 6 7 3 4 1008.8 1008.8 1.8
05/07:30pm 26.2 31.6 26.0 99 0.1 NNW 9 11 5 6 1008.8 1008.8 1.8
05/07:23pm 26.2 31.6 26.0 99 0.1 NNW 9 11 5 6 1008.7 1008.7 1.8
05/07:00pm 26.3 30.8 25.8 97 0.4 WNW 13 20 7 11 1008.4 1008.4 1.8
05/06:52pm 26.7 31.7 26.0 96 0.5 W 11 15 6 8 1008.4 1008.4 1.8
05/06:30pm 26.5 31.1 26.0 97 0.4 WSW 13 17 7 9 1008.2 1008.2 1.6
05/06:16pm 26.4 31.2 26.2 99 0.1 SW 13 19 7 10 1008.0 1008.0 1.6
05/06:00pm 26.4 30.0 26.2 99 0.1 WSW 19 24 10 13 1007.9 1007.9 1.6
05/05:51pm 26.6 30.3 25.7 95 0.6 WSW 17 26 9 14 1007.8 1007.8 1.2
05/05:30pm 27.2 30.6 25.8 92 1.0 WSW 19 24 10 13 1007.7 1007.7 0.8
05/05:25pm 27.4 31.0 26.2 93 0.9 WSW 19 24 10 13 1007.7 1007.7 0.8
05/05:00pm 26.6 30.5 26.1 97 0.4 WSW 17 22 9 12 1007.9 1007.9 0.8
05/04:30pm 27.1 31.4 26.6 97 0.4 WSW 17 24 9 13 1008.0 1008.0 0.8
05/04:00pm 27.4 32.7 26.5 95 0.6 W 11 20 6 11 1008.1 1008.1 0.8
05/03:47pm 27.5 32.4 26.4 94 0.8 W 13 17 7 9 1008.2 1008.2 0.8
05/03:30pm 27.1 30.7 26.2 95 0.6 WNW 19 28 10 15 1008.2 1008.2 0.8
05/03:25pm 27.2 30.0 25.2 89 1.4 WNW 20 28 11 15 1008.2 1008.2 0.0
05/03:00pm 29.1 33.4 26.1 84 2.1 W 15 19 8 10 1008.2 1008.2 0.0
05/02:30pm 28.9 33.0 26.3 86 1.9 W 17 20 9 11 1008.6 1008.6 0.0
05/02:00pm 28.8 32.0 25.8 84 2.1 WNW 20 28 11 15 1009.0 1009.0 0.0
05/01:30pm 28.8 33.2 26.8 89 1.4 WNW 17 20 9 11 1009.4 1009.4 0.0
05/01:00pm 28.6 32.4 26.4 88 1.6 WNW 19 24 10 13 1009.7 1009.7 0.0
05/12:30pm 28.3 32.6 26.7 91 1.1 NW 17 22 9 12 1010.2 1010.2 0.0

Other formats

Comma delimited format used in spreadsheet applications
http://www.bom.gov.au/fwo/IDW60801/IDW60801.96996.axf

JavaScript Object Notation format (JSON) in row-major order
http://www.bom.gov.au/fwo/IDW60801/IDW60801.96996.json

Data quality

Most of these data are generated automatically and are frequently updated. Quality checks on data are not normally performed. It is possible for incorrect values to appear. Refer to information at About Latest Weather Observations and please check the disclaimer before using these data.